sensor_id;sensor_type;location;lat;lon;timestamp;P1;durP1;ratioP1;P2;durP2;ratioP2
55003;SDS011;40900;52.710;6.438;2023-05-20T00:02:06;11.13;;;4.68;;
55003;SDS011;40900;52.710;6.438;2023-05-20T00:04:31;11.57;;;5.10;;
55003;SDS011;40900;52.710;6.438;2023-05-20T00:06:57;15.65;;;5.10;;
55003;SDS011;40900;52.710;6.438;2023-05-20T00:09:23;12.05;;;5.10;;
55003;SDS011;40900;52.710;6.438;2023-05-20T00:11:48;16.35;;;5.63;;
55003;SDS011;40900;52.710;6.438;2023-05-20T00:14:14;15.23;;;5.40;;
55003;SDS011;40900;52.710;6.438;2023-05-20T00:16:40;13.35;;;5.10;;
55003;SDS011;40900;52.710;6.438;2023-05-20T00:19:06;13.90;;;4.85;;
55003;SDS011;40900;52.710;6.438;2023-05-20T00:21:31;12.68;;;4.88;;
55003;SDS011;40900;52.710;6.438;2023-05-20T00:23:57;17.48;;;5.20;;
55003;SDS011;40900;52.710;6.438;2023-05-20T00:26:23;13.35;;;5.00;;
55003;SDS011;40900;52.710;6.438;2023-05-20T00:28:50;12.45;;;5.00;;
55003;SDS011;40900;52.710;6.438;2023-05-20T00:31:16;11.48;;;4.70;;
55003;SDS011;40900;52.710;6.438;2023-05-20T00:33:41;12.05;;;5.40;;
55003;SDS011;40900;52.710;6.438;2023-05-20T00:36:07;12.20;;;4.93;;
55003;SDS011;40900;52.710;6.438;2023-05-20T00:38:33;10.68;;;4.60;;
55003;SDS011;40900;52.710;6.438;2023-05-20T00:40:59;15.35;;;4.97;;
55003;SDS011;40900;52.710;6.438;2023-05-20T00:43:25;8.60;;;4.40;;
55003;SDS011;40900;52.710;6.438;2023-05-20T00:45:51;14.45;;;5.07;;
55003;SDS011;40900;52.710;6.438;2023-05-20T00:48:18;10.52;;;4.90;;
55003;SDS011;40900;52.710;6.438;2023-05-20T00:50:45;10.00;;;4.97;;
55003;SDS011;40900;52.710;6.438;2023-05-20T00:53:12;15.75;;;4.68;;
55003;SDS011;40900;52.710;6.438;2023-05-20T00:55:40;12.45;;;4.60;;
55003;SDS011;40900;52.710;6.438;2023-05-20T00:58:05;14.23;;;4.57;;
55003;SDS011;40900;52.710;6.438;2023-05-20T01:00:32;14.73;;;4.75;;
55003;SDS011;40900;52.710;6.438;2023-05-20T01:02:57;13.65;;;5.30;;
55003;SDS011;40900;52.710;6.438;2023-05-20T01:05:23;12.07;;;5.70;;
55003;SDS011;40900;52.710;6.438;2023-05-20T01:07:49;11.55;;;5.40;;
55003;SDS011;40900;52.710;6.438;2023-05-20T01:10:15;12.35;;;5.18;;
55003;SDS011;40900;52.710;6.438;2023-05-20T01:12:52;11.85;;;4.82;;
55003;SDS011;40900;52.710;6.438;2023-05-20T01:15:21;9.60;;;4.93;;
55003;SDS011;40900;52.710;6.438;2023-05-20T01:17:51;14.57;;;4.65;;
55003;SDS011;40900;52.710;6.438;2023-05-20T01:20:25;10.98;;;4.70;;
55003;SDS011;40900;52.710;6.438;2023-05-20T01:22:52;11.90;;;4.80;;
55003;SDS011;40900;52.710;6.438;2023-05-20T01:25:19;14.80;;;4.93;;
55003;SDS011;40900;52.710;6.438;2023-05-20T01:27:48;8.82;;;4.50;;
55003;SDS011;40900;52.710;6.438;2023-05-20T01:30:16;13.10;;;5.15;;
55003;SDS011;40900;52.710;6.438;2023-05-20T01:33:04;12.60;;;4.93;;
55003;SDS011;40900;52.710;6.438;2023-05-20T01:35:31;11.35;;;4.88;;
55003;SDS011;40900;52.710;6.438;2023-05-20T01:37:58;8.77;;;4.70;;
55003;SDS011;40900;52.710;6.438;2023-05-20T01:40:25;11.57;;;4.88;;
55003;SDS011;40900;52.710;6.438;2023-05-20T01:42:52;9.80;;;4.72;;
55003;SDS011;40900;52.710;6.438;2023-05-20T01:45:19;10.73;;;4.70;;
55003;SDS011;40900;52.710;6.438;2023-05-20T01:47:45;8.95;;;4.72;;
55003;SDS011;40900;52.710;6.438;2023-05-20T01:50:11;11.40;;;4.32;;
55003;SDS011;40900;52.710;6.438;2023-05-20T01:52:37;8.48;;;3.72;;
55003;SDS011;40900;52.710;6.438;2023-05-20T01:55:02;9.23;;;4.60;;
55003;SDS011;40900;52.710;6.438;2023-05-20T01:57:28;10.95;;;5.03;;
55003;SDS011;40900;52.710;6.438;2023-05-20T01:59:54;8.98;;;4.18;;
55003;SDS011;40900;52.710;6.438;2023-05-20T02:02:19;12.15;;;4.55;;
55003;SDS011;40900;52.710;6.438;2023-05-20T02:04:46;10.05;;;4.30;;
55003;SDS011;40900;52.710;6.438;2023-05-20T02:07:13;8.52;;;4.35;;
55003;SDS011;40900;52.710;6.438;2023-05-20T02:09:39;11.27;;;4.90;;
55003;SDS011;40900;52.710;6.438;2023-05-20T02:12:06;13.65;;;5.28;;
55003;SDS011;40900;52.710;6.438;2023-05-20T02:14:32;10.77;;;4.43;;
55003;SDS011;40900;52.710;6.438;2023-05-20T02:16:58;12.32;;;4.43;;
55003;SDS011;40900;52.710;6.438;2023-05-20T02:19:23;11.23;;;4.60;;
55003;SDS011;40900;52.710;6.438;2023-05-20T02:21:49;11.63;;;4.70;;
55003;SDS011;40900;52.710;6.438;2023-05-20T02:24:15;12.43;;;5.43;;
55003;SDS011;40900;52.710;6.438;2023-05-20T02:26:41;10.60;;;4.10;;
55003;SDS011;40900;52.710;6.438;2023-05-20T02:29:09;11.45;;;4.30;;
55003;SDS011;40900;52.710;6.438;2023-05-20T02:31:35;16.35;;;4.82;;
55003;SDS011;40900;52.710;6.438;2023-05-20T02:34:01;12.30;;;4.30;;
55003;SDS011;40900;52.710;6.438;2023-05-20T02:36:28;11.00;;;3.97;;
55003;SDS011;40900;52.710;6.438;2023-05-20T02:38:53;10.65;;;4.20;;
55003;SDS011;40900;52.710;6.438;2023-05-20T02:41:21;8.93;;;3.80;;
55003;SDS011;40900;52.710;6.438;2023-05-20T02:43:47;10.50;;;4.78;;
55003;SDS011;40900;52.710;6.438;2023-05-20T02:46:12;11.52;;;4.32;;
55003;SDS011;40900;52.710;6.438;2023-05-20T02:48:39;11.48;;;4.35;;
55003;SDS011;40900;52.710;6.438;2023-05-20T02:51:05;9.10;;;4.43;;
55003;SDS011;40900;52.710;6.438;2023-05-20T02:53:31;9.98;;;4.30;;
55003;SDS011;40900;52.710;6.438;2023-05-20T02:55:57;8.13;;;3.95;;
55003;SDS011;40900;52.710;6.438;2023-05-20T02:58:23;11.85;;;4.20;;
55003;SDS011;40900;52.710;6.438;2023-05-20T03:00:50;8.57;;;4.28;;
55003;SDS011;40900;52.710;6.438;2023-05-20T03:03:16;9.93;;;4.35;;
55003;SDS011;40900;52.710;6.438;2023-05-20T03:05:42;11.05;;;4.07;;
55003;SDS011;40900;52.710;6.438;2023-05-20T03:08:10;8.82;;;3.92;;
55003;SDS011;40900;52.710;6.438;2023-05-20T03:10:37;7.45;;;3.80;;
55003;SDS011;40900;52.710;6.438;2023-05-20T03:13:06;9.82;;;4.25;;
55003;SDS011;40900;52.710;6.438;2023-05-20T03:15:34;12.18;;;4.38;;
55003;SDS011;40900;52.710;6.438;2023-05-20T03:18:00;8.82;;;4.15;;
55003;SDS011;40900;52.710;6.438;2023-05-20T03:20:26;10.52;;;4.20;;
55003;SDS011;40900;52.710;6.438;2023-05-20T03:22:56;10.63;;;4.45;;
55003;SDS011;40900;52.710;6.438;2023-05-20T03:25:23;8.55;;;4.05;;
55003;SDS011;40900;52.710;6.438;2023-05-20T03:27:50;9.18;;;4.15;;
55003;SDS011;40900;52.710;6.438;2023-05-20T03:30:16;10.70;;;3.97;;
55003;SDS011;40900;52.710;6.438;2023-05-20T03:32:41;10.05;;;4.03;;
55003;SDS011;40900;52.710;6.438;2023-05-20T03:35:07;10.27;;;4.25;;
55003;SDS011;40900;52.710;6.438;2023-05-20T03:37:33;8.02;;;4.40;;
55003;SDS011;40900;52.710;6.438;2023-05-20T03:39:59;8.77;;;3.95;;
55003;SDS011;40900;52.710;6.438;2023-05-20T03:42:25;10.57;;;4.47;;
55003;SDS011;40900;52.710;6.438;2023-05-20T03:44:51;8.70;;;4.22;;
55003;SDS011;40900;52.710;6.438;2023-05-20T03:47:17;10.23;;;4.00;;
55003;SDS011;40900;52.710;6.438;2023-05-20T03:49:42;6.03;;;4.25;;
55003;SDS011;40900;52.710;6.438;2023-05-20T03:52:08;9.50;;;4.38;;
55003;SDS011;40900;52.710;6.438;2023-05-20T03:54:34;9.48;;;4.20;;
55003;SDS011;40900;52.710;6.438;2023-05-20T03:57:00;12.07;;;4.93;;
55003;SDS011;40900;52.710;6.438;2023-05-20T03:59:27;11.32;;;4.50;;
55003;SDS011;40900;52.710;6.438;2023-05-20T04:01:53;8.80;;;3.85;;
55003;SDS011;40900;52.710;6.438;2023-05-20T04:04:20;12.00;;;4.32;;
55003;SDS011;40900;52.710;6.438;2023-05-20T04:06:46;10.27;;;4.20;;
55003;SDS011;40900;52.710;6.438;2023-05-20T04:09:12;7.95;;;3.47;;
55003;SDS011;40900;52.710;6.438;2023-05-20T04:11:38;9.00;;;3.70;;
55003;SDS011;40900;52.710;6.438;2023-05-20T04:14:04;8.00;;;3.60;;
55003;SDS011;40900;52.710;6.438;2023-05-20T04:16:29;8.27;;;4.20;;
55003;SDS011;40900;52.710;6.438;2023-05-20T04:18:55;8.38;;;3.95;;
55003;SDS011;40900;52.710;6.438;2023-05-20T04:21:23;9.23;;;4.22;;
55003;SDS011;40900;52.710;6.438;2023-05-20T04:23:48;7.85;;;4.10;;
55003;SDS011;40900;52.710;6.438;2023-05-20T04:26:14;7.10;;;4.15;;
55003;SDS011;40900;52.710;6.438;2023-05-20T04:28:40;7.43;;;3.60;;
55003;SDS011;40900;52.710;6.438;2023-05-20T04:31:06;10.75;;;3.70;;
55003;SDS011;40900;52.710;6.438;2023-05-20T04:33:32;10.52;;;4.10;;
55003;SDS011;40900;52.710;6.438;2023-05-20T04:36:02;8.02;;;3.63;;
55003;SDS011;40900;52.710;6.438;2023-05-20T04:38:29;8.18;;;3.45;;
55003;SDS011;40900;52.710;6.438;2023-05-20T04:40:56;12.32;;;3.67;;
55003;SDS011;40900;52.710;6.438;2023-05-20T04:43:23;5.50;;;3.72;;
55003;SDS011;40900;52.710;6.438;2023-05-20T04:45:58;6.38;;;3.40;;
55003;SDS011;40900;52.710;6.438;2023-05-20T04:48:25;8.48;;;3.20;;
55003;SDS011;40900;52.710;6.438;2023-05-20T04:50:51;9.98;;;3.72;;
55003;SDS011;40900;52.710;6.438;2023-05-20T04:53:18;7.57;;;3.45;;
55003;SDS011;40900;52.710;6.438;2023-05-20T04:55:46;7.88;;;3.40;;
55003;SDS011;40900;52.710;6.438;2023-05-20T04:58:12;8.60;;;3.38;;
55003;SDS011;40900;52.710;6.438;2023-05-20T05:00:41;7.40;;;3.70;;
55003;SDS011;40900;52.710;6.438;2023-05-20T05:03:08;6.65;;;3.13;;
55003;SDS011;40900;52.710;6.438;2023-05-20T05:05:34;7.88;;;3.78;;
55003;SDS011;40900;52.710;6.438;2023-05-20T05:08:03;7.38;;;3.10;;
55003;SDS011;40900;52.710;6.438;2023-05-20T05:10:31;7.50;;;3.15;;
55003;SDS011;40900;52.710;6.438;2023-05-20T05:12:57;8.60;;;3.10;;
55003;SDS011;40900;52.710;6.438;2023-05-20T05:15:23;9.40;;;3.25;;
55003;SDS011;40900;52.710;6.438;2023-05-20T05:17:49;5.68;;;3.00;;
55003;SDS011;40900;52.710;6.438;2023-05-20T05:20:15;6.05;;;3.17;;
55003;SDS011;40900;52.710;6.438;2023-05-20T05:22:41;9.02;;;3.60;;
55003;SDS011;40900;52.710;6.438;2023-05-20T05:25:08;7.07;;;3.15;;
55003;SDS011;40900;52.710;6.438;2023-05-20T05:27:34;5.03;;;2.95;;
55003;SDS011;40900;52.710;6.438;2023-05-20T05:30:00;4.70;;;2.67;;
55003;SDS011;40900;52.710;6.438;2023-05-20T05:32:27;5.95;;;2.80;;
55003;SDS011;40900;52.710;6.438;2023-05-20T05:34:53;4.63;;;2.67;;
55003;SDS011;40900;52.710;6.438;2023-05-20T05:37:19;7.78;;;2.78;;
55003;SDS011;40900;52.710;6.438;2023-05-20T05:39:45;4.70;;;2.72;;
55003;SDS011;40900;52.710;6.438;2023-05-20T05:42:11;6.72;;;2.83;;
55003;SDS011;40900;52.710;6.438;2023-05-20T05:44:36;8.60;;;2.88;;
55003;SDS011;40900;52.710;6.438;2023-05-20T05:47:02;5.18;;;2.42;;
55003;SDS011;40900;52.710;6.438;2023-05-20T05:49:29;7.20;;;2.65;;
55003;SDS011;40900;52.710;6.438;2023-05-20T05:51:55;6.03;;;2.67;;
55003;SDS011;40900;52.710;6.438;2023-05-20T05:54:21;4.30;;;2.40;;
55003;SDS011;40900;52.710;6.438;2023-05-20T05:56:46;8.13;;;3.08;;
55003;SDS011;40900;52.710;6.438;2023-05-20T05:59:12;7.53;;;2.60;;
55003;SDS011;40900;52.710;6.438;2023-05-20T06:01:39;7.93;;;2.40;;
55003;SDS011;40900;52.710;6.438;2023-05-20T06:04:05;6.55;;;2.38;;
55003;SDS011;40900;52.710;6.438;2023-05-20T06:06:31;4.53;;;2.55;;
55003;SDS011;40900;52.710;6.438;2023-05-20T06:08:57;4.30;;;2.42;;
55003;SDS011;40900;52.710;6.438;2023-05-20T06:11:23;5.53;;;2.38;;
55003;SDS011;40900;52.710;6.438;2023-05-20T06:13:49;6.55;;;2.70;;
55003;SDS011;40900;52.710;6.438;2023-05-20T06:16:15;5.30;;;2.25;;
55003;SDS011;40900;52.710;6.438;2023-05-20T06:18:41;4.47;;;2.20;;
55003;SDS011;40900;52.710;6.438;2023-05-20T06:21:07;5.85;;;2.40;;
55003;SDS011;40900;52.710;6.438;2023-05-20T06:23:32;8.60;;;2.80;;
55003;SDS011;40900;52.710;6.438;2023-05-20T06:25:58;5.50;;;2.35;;
55003;SDS011;40900;52.710;6.438;2023-05-20T06:28:25;5.97;;;2.20;;
55003;SDS011;40900;52.710;6.438;2023-05-20T06:30:53;5.00;;;2.30;;
55003;SDS011;40900;52.710;6.438;2023-05-20T06:33:19;4.55;;;2.65;;
55003;SDS011;40900;52.710;6.438;2023-05-20T06:35:50;6.78;;;2.53;;
55003;SDS011;40900;52.710;6.438;2023-05-20T06:38:19;4.38;;;2.63;;
55003;SDS011;40900;52.710;6.438;2023-05-20T06:40:45;4.05;;;2.45;;
55003;SDS011;40900;52.710;6.438;2023-05-20T06:43:13;3.60;;;2.35;;
55003;SDS011;40900;52.710;6.438;2023-05-20T06:45:39;4.50;;;2.10;;
55003;SDS011;40900;52.710;6.438;2023-05-20T06:48:05;5.30;;;2.30;;
55003;SDS011;40900;52.710;6.438;2023-05-20T06:50:31;4.97;;;2.20;;
55003;SDS011;40900;52.710;6.438;2023-05-20T06:52:57;4.20;;;2.45;;
55003;SDS011;40900;52.710;6.438;2023-05-20T06:55:22;5.53;;;2.38;;
55003;SDS011;40900;52.710;6.438;2023-05-20T06:57:48;8.00;;;2.72;;
55003;SDS011;40900;52.710;6.438;2023-05-20T07:00:14;3.65;;;2.38;;
55003;SDS011;40900;52.710;6.438;2023-05-20T07:02:40;4.93;;;2.38;;
55003;SDS011;40900;52.710;6.438;2023-05-20T07:05:10;5.13;;;2.70;;
55003;SDS011;40900;52.710;6.438;2023-05-20T07:07:36;6.32;;;2.70;;
55003;SDS011;40900;52.710;6.438;2023-05-20T07:10:02;4.65;;;2.40;;
55003;SDS011;40900;52.710;6.438;2023-05-20T07:12:30;4.47;;;2.58;;
55003;SDS011;40900;52.710;6.438;2023-05-20T07:14:56;6.95;;;2.70;;
55003;SDS011;40900;52.710;6.438;2023-05-20T07:17:22;8.27;;;2.45;;
55003;SDS011;40900;52.710;6.438;2023-05-20T07:19:48;3.53;;;2.20;;
55003;SDS011;40900;52.710;6.438;2023-05-20T07:22:14;5.53;;;2.45;;
55003;SDS011;40900;52.710;6.438;2023-05-20T07:24:40;9.52;;;2.80;;
55003;SDS011;40900;52.710;6.438;2023-05-20T07:27:06;3.80;;;2.55;;
55003;SDS011;40900;52.710;6.438;2023-05-20T07:29:33;9.50;;;2.70;;
55003;SDS011;40900;52.710;6.438;2023-05-20T07:31:59;4.47;;;2.33;;
55003;SDS011;40900;52.710;6.438;2023-05-20T07:34:25;6.95;;;3.30;;
55003;SDS011;40900;52.710;6.438;2023-05-20T07:36:51;5.93;;;2.95;;
55003;SDS011;40900;52.710;6.438;2023-05-20T07:39:17;9.05;;;2.88;;
55003;SDS011;40900;52.710;6.438;2023-05-20T07:41:43;5.55;;;2.60;;
55003;SDS011;40900;52.710;6.438;2023-05-20T07:44:09;5.07;;;2.70;;
55003;SDS011;40900;52.710;6.438;2023-05-20T07:46:36;5.13;;;3.38;;
55003;SDS011;40900;52.710;6.438;2023-05-20T07:49:03;4.68;;;2.90;;
55003;SDS011;40900;52.710;6.438;2023-05-20T07:51:29;6.10;;;2.70;;
55003;SDS011;40900;52.710;6.438;2023-05-20T07:53:55;3.25;;;2.35;;
55003;SDS011;40900;52.710;6.438;2023-05-20T07:56:21;7.75;;;2.80;;
55003;SDS011;40900;52.710;6.438;2023-05-20T07:58:57;4.75;;;2.70;;
55003;SDS011;40900;52.710;6.438;2023-05-20T08:01:24;4.00;;;2.70;;
55003;SDS011;40900;52.710;6.438;2023-05-20T08:03:50;7.30;;;2.67;;
55003;SDS011;40900;52.710;6.438;2023-05-20T08:06:16;4.82;;;2.28;;
55003;SDS011;40900;52.710;6.438;2023-05-20T08:08:44;8.07;;;2.60;;
55003;SDS011;40900;52.710;6.438;2023-05-20T08:11:10;4.93;;;2.47;;
55003;SDS011;40900;52.710;6.438;2023-05-20T08:13:37;4.28;;;2.72;;
55003;SDS011;40900;52.710;6.438;2023-05-20T08:16:03;7.70;;;2.95;;
55003;SDS011;40900;52.710;6.438;2023-05-20T08:18:30;6.38;;;2.70;;
55003;SDS011;40900;52.710;6.438;2023-05-20T08:20:57;5.82;;;2.72;;
55003;SDS011;40900;52.710;6.438;2023-05-20T08:23:23;4.60;;;2.42;;
55003;SDS011;40900;52.710;6.438;2023-05-20T08:25:49;7.35;;;2.42;;
55003;SDS011;40900;52.710;6.438;2023-05-20T08:28:16;6.75;;;2.33;;
55003;SDS011;40900;52.710;6.438;2023-05-20T08:30:41;6.57;;;2.55;;
55003;SDS011;40900;52.710;6.438;2023-05-20T08:33:07;5.90;;;2.67;;
55003;SDS011;40900;52.710;6.438;2023-05-20T08:35:33;4.90;;;2.40;;
55003;SDS011;40900;52.710;6.438;2023-05-20T08:37:59;3.83;;;2.60;;
55003;SDS011;40900;52.710;6.438;2023-05-20T08:40:26;10.85;;;2.97;;
55003;SDS011;40900;52.710;6.438;2023-05-20T08:42:51;5.72;;;2.60;;
55003;SDS011;40900;52.710;6.438;2023-05-20T08:45:18;3.65;;;2.40;;
55003;SDS011;40900;52.710;6.438;2023-05-20T08:47:45;5.82;;;2.47;;
55003;SDS011;40900;52.710;6.438;2023-05-20T08:50:12;4.35;;;2.33;;
55003;SDS011;40900;52.710;6.438;2023-05-20T08:52:42;6.50;;;2.58;;
55003;SDS011;40900;52.710;6.438;2023-05-20T08:55:10;5.63;;;2.33;;
55003;SDS011;40900;52.710;6.438;2023-05-20T08:57:57;4.60;;;2.40;;
55003;SDS011;40900;52.710;6.438;2023-05-20T09:00:23;5.15;;;2.30;;
55003;SDS011;40900;52.710;6.438;2023-05-20T09:02:53;3.92;;;2.10;;
55003;SDS011;40900;52.710;6.438;2023-05-20T09:05:22;5.50;;;2.40;;
55003;SDS011;40900;52.710;6.438;2023-05-20T09:07:48;4.30;;;2.50;;
55003;SDS011;40900;52.710;6.438;2023-05-20T09:10:14;4.10;;;2.13;;
55003;SDS011;40900;52.710;6.438;2023-05-20T09:12:40;3.95;;;1.98;;
55003;SDS011;40900;52.710;6.438;2023-05-20T09:15:06;3.70;;;2.40;;
55003;SDS011;40900;52.710;6.438;2023-05-20T09:17:36;5.38;;;2.20;;
55003;SDS011;40900;52.710;6.438;2023-05-20T09:20:08;5.15;;;2.40;;
55003;SDS011;40900;52.710;6.438;2023-05-20T09:22:35;4.00;;;2.03;;
55003;SDS011;40900;52.710;6.438;2023-05-20T09:25:02;10.20;;;1.92;;
55003;SDS011;40900;52.710;6.438;2023-05-20T09:27:29;4.55;;;2.22;;
55003;SDS011;40900;52.710;6.438;2023-05-20T09:29:54;7.57;;;2.10;;
55003;SDS011;40900;52.710;6.438;2023-05-20T09:32:20;4.50;;;2.30;;
55003;SDS011;40900;52.710;6.438;2023-05-20T09:34:52;4.43;;;2.53;;
55003;SDS011;40900;52.710;6.438;2023-05-20T09:37:18;5.55;;;2.00;;
55003;SDS011;40900;52.710;6.438;2023-05-20T09:39:52;6.60;;;2.33;;
55003;SDS011;40900;52.710;6.438;2023-05-20T09:42:27;4.10;;;2.47;;
55003;SDS011;40900;52.710;6.438;2023-05-20T09:44:55;8.15;;;2.00;;
55003;SDS011;40900;52.710;6.438;2023-05-20T09:47:22;3.67;;;2.10;;
55003;SDS011;40900;52.710;6.438;2023-05-20T09:49:51;5.07;;;2.20;;
55003;SDS011;40900;52.710;6.438;2023-05-20T09:52:18;5.53;;;2.13;;
55003;SDS011;40900;52.710;6.438;2023-05-20T09:54:44;3.90;;;2.20;;
55003;SDS011;40900;52.710;6.438;2023-05-20T09:57:12;3.97;;;2.20;;
55003;SDS011;40900;52.710;6.438;2023-05-20T09:59:38;6.00;;;2.17;;
55003;SDS011;40900;52.710;6.438;2023-05-20T10:02:05;4.95;;;2.20;;
55003;SDS011;40900;52.710;6.438;2023-05-20T10:04:34;5.82;;;2.20;;
55003;SDS011;40900;52.710;6.438;2023-05-20T10:07:26;5.20;;;2.20;;
55003;SDS011;40900;52.710;6.438;2023-05-20T10:10:31;6.13;;;2.33;;
55003;SDS011;40900;52.710;6.438;2023-05-20T10:22:04;4.50;;;2.03;;
55003;SDS011;40900;52.710;6.438;2023-05-20T10:27:00;4.85;;;1.92;;
55003;SDS011;40900;52.710;6.438;2023-05-20T10:29:27;4.07;;;1.77;;
55003;SDS011;40900;52.710;6.438;2023-05-20T10:31:53;5.05;;;2.55;;
55003;SDS011;40900;52.710;6.438;2023-05-20T10:34:20;5.05;;;2.28;;
55003;SDS011;40900;52.710;6.438;2023-05-20T10:39:23;5.82;;;2.30;;
55003;SDS011;40900;52.710;6.438;2023-05-20T10:42:06;6.70;;;2.08;;
55003;SDS011;40900;52.710;6.438;2023-05-20T10:44:45;6.20;;;2.20;;
55003;SDS011;40900;52.710;6.438;2023-05-20T10:47:12;6.40;;;2.30;;
55003;SDS011;40900;52.710;6.438;2023-05-20T10:49:44;4.00;;;2.25;;
55003;SDS011;40900;52.710;6.438;2023-05-20T10:52:14;12.52;;;2.50;;
55003;SDS011;40900;52.710;6.438;2023-05-20T10:54:56;7.47;;;2.20;;
55003;SDS011;40900;52.710;6.438;2023-05-20T10:57:27;4.45;;;1.98;;
55003;SDS011;40900;52.710;6.438;2023-05-20T10:59:54;5.55;;;2.20;;
55003;SDS011;40900;52.710;6.438;2023-05-20T11:02:20;5.05;;;2.10;;
55003;SDS011;40900;52.710;6.438;2023-05-20T11:04:54;4.53;;;2.63;;
55003;SDS011;40900;52.710;6.438;2023-05-20T11:07:29;3.40;;;1.92;;
55003;SDS011;40900;52.710;6.438;2023-05-20T11:09:56;4.60;;;1.98;;
55003;SDS011;40900;52.710;6.438;2023-05-20T11:12:25;5.60;;;2.17;;
55003;SDS011;40900;52.710;6.438;2023-05-20T11:14:52;9.60;;;3.65;;
55003;SDS011;40900;52.710;6.438;2023-05-20T11:17:18;5.82;;;2.42;;
55003;SDS011;40900;52.710;6.438;2023-05-20T11:19:45;3.03;;;1.85;;
55003;SDS011;40900;52.710;6.438;2023-05-20T11:22:11;6.05;;;2.08;;
55003;SDS011;40900;52.710;6.438;2023-05-20T11:24:37;7.18;;;2.47;;
55003;SDS011;40900;52.710;6.438;2023-05-20T11:27:02;5.15;;;2.20;;
55003;SDS011;40900;52.710;6.438;2023-05-20T11:29:29;4.15;;;2.10;;
55003;SDS011;40900;52.710;6.438;2023-05-20T11:31:56;5.30;;;2.00;;
55003;SDS011;40900;52.710;6.438;2023-05-20T11:34:23;5.43;;;2.20;;
55003;SDS011;40900;52.710;6.438;2023-05-20T11:36:58;6.93;;;1.88;;
55003;SDS011;40900;52.710;6.438;2023-05-20T11:39:28;3.78;;;1.90;;
55003;SDS011;40900;52.710;6.438;2023-05-20T11:41:54;4.85;;;2.10;;
55003;SDS011;40900;52.710;6.438;2023-05-20T11:44:20;10.48;;;2.40;;
55003;SDS011;40900;52.710;6.438;2023-05-20T11:46:46;5.80;;;1.73;;
55003;SDS011;40900;52.710;6.438;2023-05-20T11:49:12;3.28;;;1.70;;
55003;SDS011;40900;52.710;6.438;2023-05-20T11:51:39;5.10;;;2.13;;
55003;SDS011;40900;52.710;6.438;2023-05-20T11:54:06;5.28;;;1.92;;
55003;SDS011;40900;52.710;6.438;2023-05-20T11:56:33;5.22;;;2.42;;
55003;SDS011;40900;52.710;6.438;2023-05-20T11:59:03;4.35;;;1.98;;
55003;SDS011;40900;52.710;6.438;2023-05-20T12:01:34;5.43;;;1.90;;
55003;SDS011;40900;52.710;6.438;2023-05-20T12:04:11;5.47;;;1.85;;
55003;SDS011;40900;52.710;6.438;2023-05-20T12:06:41;7.25;;;2.20;;
55003;SDS011;40900;52.710;6.438;2023-05-20T12:09:08;4.53;;;2.05;;
55003;SDS011;40900;52.710;6.438;2023-05-20T12:11:37;8.63;;;2.25;;
55003;SDS011;40900;52.710;6.438;2023-05-20T12:14:05;6.82;;;2.00;;
55003;SDS011;40900;52.710;6.438;2023-05-20T12:16:32;3.10;;;1.92;;
55003;SDS011;40900;52.710;6.438;2023-05-20T12:18:59;7.32;;;2.13;;
55003;SDS011;40900;52.710;6.438;2023-05-20T12:21:25;7.13;;;1.90;;
55003;SDS011;40900;52.710;6.438;2023-05-20T12:23:52;3.22;;;1.73;;
55003;SDS011;40900;52.710;6.438;2023-05-20T12:26:25;7.85;;;2.08;;
55003;SDS011;40900;52.710;6.438;2023-05-20T12:28:52;4.70;;;1.98;;
55003;SDS011;40900;52.710;6.438;2023-05-20T12:31:18;5.93;;;2.13;;
55003;SDS011;40900;52.710;6.438;2023-05-20T12:33:44;9.27;;;2.03;;
55003;SDS011;40900;52.710;6.438;2023-05-20T12:36:10;4.72;;;2.03;;
55003;SDS011;40900;52.710;6.438;2023-05-20T12:38:37;4.10;;;2.10;;
55003;SDS011;40900;52.710;6.438;2023-05-20T12:41:05;5.93;;;2.17;;
55003;SDS011;40900;52.710;6.438;2023-05-20T12:43:31;4.60;;;2.05;;
55003;SDS011;40900;52.710;6.438;2023-05-20T12:45:57;4.90;;;2.25;;
55003;SDS011;40900;52.710;6.438;2023-05-20T12:48:22;4.15;;;1.52;;
55003;SDS011;40900;52.710;6.438;2023-05-20T12:50:48;5.43;;;1.90;;
55003;SDS011;40900;52.710;6.438;2023-05-20T12:53:14;11.27;;;2.25;;
55003;SDS011;40900;52.710;6.438;2023-05-20T12:55:39;6.20;;;2.10;;
55003;SDS011;40900;52.710;6.438;2023-05-20T12:58:05;6.07;;;1.98;;
55003;SDS011;40900;52.710;6.438;2023-05-20T13:00:33;3.20;;;1.63;;
55003;SDS011;40900;52.710;6.438;2023-05-20T13:02:59;3.88;;;1.85;;
55003;SDS011;40900;52.710;6.438;2023-05-20T13:05:24;5.65;;;1.80;;
55003;SDS011;40900;52.710;6.438;2023-05-20T13:07:50;6.55;;;2.30;;
55003;SDS011;40900;52.710;6.438;2023-05-20T13:10:16;3.35;;;1.70;;
55003;SDS011;40900;52.710;6.438;2023-05-20T13:12:42;3.45;;;1.95;;
55003;SDS011;40900;52.710;6.438;2023-05-20T13:15:11;4.88;;;1.90;;
55003;SDS011;40900;52.710;6.438;2023-05-20T13:17:41;8.57;;;2.35;;
55003;SDS011;40900;52.710;6.438;2023-05-20T13:20:06;3.95;;;1.98;;
55003;SDS011;40900;52.710;6.438;2023-05-20T13:22:33;4.57;;;1.90;;
55003;SDS011;40900;52.710;6.438;2023-05-20T13:24:59;5.43;;;2.05;;
55003;SDS011;40900;52.710;6.438;2023-05-20T13:27:25;6.35;;;2.00;;
55003;SDS011;40900;52.710;6.438;2023-05-20T13:29:50;5.10;;;2.15;;
55003;SDS011;40900;52.710;6.438;2023-05-20T13:32:16;5.30;;;2.10;;
55003;SDS011;40900;52.710;6.438;2023-05-20T13:34:42;6.88;;;2.17;;
55003;SDS011;40900;52.710;6.438;2023-05-20T13:37:08;3.85;;;1.85;;
55003;SDS011;40900;52.710;6.438;2023-05-20T13:39:34;3.20;;;1.85;;
55003;SDS011;40900;52.710;6.438;2023-05-20T13:42:00;4.68;;;1.77;;
55003;SDS011;40900;52.710;6.438;2023-05-20T13:44:26;4.82;;;2.03;;
55003;SDS011;40900;52.710;6.438;2023-05-20T13:46:51;4.47;;;2.00;;
55003;SDS011;40900;52.710;6.438;2023-05-20T13:49:17;2.97;;;1.90;;
55003;SDS011;40900;52.710;6.438;2023-05-20T13:51:43;3.15;;;1.80;;
55003;SDS011;40900;52.710;6.438;2023-05-20T13:54:10;4.47;;;2.08;;
55003;SDS011;40900;52.710;6.438;2023-05-20T13:56:35;8.25;;;1.73;;
55003;SDS011;40900;52.710;6.438;2023-05-20T13:59:02;8.80;;;2.10;;
55003;SDS011;40900;52.710;6.438;2023-05-20T14:01:29;5.03;;;1.80;;
55003;SDS011;40900;52.710;6.438;2023-05-20T14:03:57;5.10;;;1.92;;
55003;SDS011;40900;52.710;6.438;2023-05-20T14:06:23;3.88;;;1.90;;
55003;SDS011;40900;52.710;6.438;2023-05-20T14:08:52;7.35;;;2.17;;
55003;SDS011;40900;52.710;6.438;2023-05-20T14:11:18;4.68;;;1.70;;
55003;SDS011;40900;52.710;6.438;2023-05-20T14:13:45;8.48;;;2.00;;
55003;SDS011;40900;52.710;6.438;2023-05-20T14:16:11;5.18;;;1.80;;
55003;SDS011;40900;52.710;6.438;2023-05-20T14:18:36;4.43;;;2.10;;
55003;SDS011;40900;52.710;6.438;2023-05-20T14:21:02;7.22;;;2.10;;
55003;SDS011;40900;52.710;6.438;2023-05-20T14:23:28;3.92;;;1.80;;
55003;SDS011;40900;52.710;6.438;2023-05-20T14:25:54;7.82;;;2.03;;
55003;SDS011;40900;52.710;6.438;2023-05-20T14:28:19;3.72;;;1.88;;
55003;SDS011;40900;52.710;6.438;2023-05-20T14:30:45;4.97;;;2.10;;
55003;SDS011;40900;52.710;6.438;2023-05-20T14:33:11;3.40;;;1.70;;
55003;SDS011;40900;52.710;6.438;2023-05-20T14:35:36;6.05;;;2.10;;
55003;SDS011;40900;52.710;6.438;2023-05-20T14:38:02;6.97;;;1.80;;
55003;SDS011;40900;52.710;6.438;2023-05-20T14:40:28;4.05;;;1.90;;
55003;SDS011;40900;52.710;6.438;2023-05-20T14:42:53;3.55;;;1.80;;
55003;SDS011;40900;52.710;6.438;2023-05-20T14:45:19;3.75;;;1.90;;
55003;SDS011;40900;52.710;6.438;2023-05-20T14:47:45;4.90;;;1.80;;
55003;SDS011;40900;52.710;6.438;2023-05-20T14:50:10;3.33;;;1.77;;
55003;SDS011;40900;52.710;6.438;2023-05-20T14:52:36;5.47;;;1.80;;
55003;SDS011;40900;52.710;6.438;2023-05-20T14:55:02;4.38;;;1.80;;
55003;SDS011;40900;52.710;6.438;2023-05-20T14:57:28;4.93;;;1.85;;
55003;SDS011;40900;52.710;6.438;2023-05-20T14:59:54;5.40;;;2.10;;